Time;durP1;ratioP1;P1;durP2;ratioP2;P2;SDS_P1;SDS_P2;PMS_P1;PMS_P2;Temp;Humidity;BMP_temperature;BMP_pressure;BME280_temperature;BME280_humidity;BME280_pressure;Samples;Min_cycle;Max_cycle;Signal;HPM_P1;HPM_P2
2022/04/17 00:00:12;;;;;;;3.25;2.30;;;;;;;;;;5014608;28;20046;-38
2022/04/17 00:02:38;;;;;;;3.65;1.83;;;;;;;;;;5014656;28;20482;-39
2022/04/17 00:05:05;;;;;;;2.55;1.98;;;;;;;;;;5014116;28;20070;-39
2022/04/17 00:07:31;;;;;;;2.03;1.83;;;;;;;;;;5013640;28;20072;-39
2022/04/17 00:09:57;;;;;;;2.35;2.00;;;;;;;;;;5014120;28;20072;-38
2022/04/17 00:12:23;;;;;;;2.25;1.70;;;;;;;;;;5014861;28;20133;-38
2022/04/17 00:14:50;;;;;;;3.13;1.90;;;;;;;;;;5014748;28;20049;-39
2022/04/17 00:17:15;;;;;;;1.60;1.50;;;;;;;;;;4997346;28;20030;-38
2022/04/17 00:19:41;;;;;;;4.78;2.53;;;;;;;;;;5014407;28;20378;-38
2022/04/17 00:22:07;;;;;;;1.85;1.58;;;;;;;;;;5014603;28;20037;-39
2022/04/17 00:24:32;;;;;;;2.13;1.92;;;;;;;;;;5014304;28;20030;-38
2022/04/17 00:26:59;;;;;;;1.55;1.10;;;;;;;;;;5014457;28;20030;-40
2022/04/17 00:29:28;;;;;;;3.33;1.90;;;;;;;;;;5014396;28;20038;-39
2022/04/17 00:31:56;;;;;;;2.15;1.80;;;;;;;;;;5014186;28;20533;-38
2022/04/17 00:34:22;;;;;;;2.97;1.80;;;;;;;;;;5014180;28;20117;-38
2022/04/17 00:36:48;;;;;;;3.00;1.73;;;;;;;;;;5014381;28;20037;-38
2022/04/17 00:39:13;;;;;;;2.50;1.83;;;;;;;;;;5014080;28;20403;-39
2022/04/17 00:41:39;;;;;;;1.63;1.50;;;;;;;;;;5014341;28;20080;-39
2022/04/17 00:44:15;;;;;;;1.20;1.10;;;;;;;;;;5013875;28;20018;-39
2022/04/17 00:46:40;;;;;;;1.77;1.48;;;;;;;;;;5014248;28;20359;-39
2022/04/17 00:49:09;;;;;;;2.83;1.40;;;;;;;;;;5013046;28;20092;-38
2022/04/17 00:51:36;;;;;;;8.45;1.70;;;;;;;;;;5014113;28;20057;-39
2022/04/17 00:54:07;;;;;;;0.95;0.93;;;;;;;;;;5014121;28;20022;-38
2022/04/17 00:56:32;;;;;;;1.40;1.30;;;;;;;;;;5013979;28;20547;-39
2022/04/17 00:58:58;;;;;;;2.17;1.40;;;;;;;;;;5013506;28;20046;-39
2022/04/17 01:01:24;;;;;;;4.55;1.55;;;;;;;;;;5013715;28;20045;-40
2022/04/17 01:03:50;;;;;;;1.98;1.45;;;;;;;;;;5013916;28;20045;-39
2022/04/17 01:06:16;;;;;;;1.85;1.48;;;;;;;;;;5013832;28;20025;-39
2022/04/17 01:08:42;;;;;;;2.15;1.10;;;;;;;;;;5013531;28;20425;-39
2022/04/17 01:11:09;;;;;;;1.50;1.30;;;;;;;;;;5013761;28;20030;-39
2022/04/17 01:13:36;;;;;;;1.30;1.10;;;;;;;;;;5013668;28;20161;-39
2022/04/17 01:16:05;;;;;;;1.27;1.17;;;;;;;;;;5013442;28;20033;-39
2022/04/17 01:18:50;;;;;;;1.20;1.10;;;;;;;;;;5013291;28;20026;-38
2022/04/17 01:21:19;;;;;;;0.88;0.88;;;;;;;;;;5012974;28;20033;-38
2022/04/17 01:29:14;;;;;;;0.82;0.82;;;;;;;;;;5013562;28;20041;-39
2022/04/17 01:31:40;;;;;;;0.60;0.60;;;;;;;;;;5013510;28;20022;-39
2022/04/17 01:34:05;;;;;;;1.60;1.15;;;;;;;;;;5013408;28;20033;-40
2022/04/17 01:36:31;;;;;;;1.17;1.08;;;;;;;;;;5013361;28;20026;-39
2022/04/17 01:38:56;;;;;;;2.10;1.33;;;;;;;;;;5013444;28;20454;-39
2022/04/17 01:41:22;;;;;;;1.30;1.20;;;;;;;;;;5013250;28;20178;-39
2022/04/17 01:43:47;;;;;;;0.95;0.85;;;;;;;;;;5012971;28;20087;-39
2022/04/17 01:46:13;;;;;;;1.20;1.10;;;;;;;;;;5012958;28;20022;-38
2022/04/17 01:48:39;;;;;;;1.13;1.00;;;;;;;;;;5012803;28;20038;-38
2022/04/17 01:51:04;;;;;;;1.73;0.85;;;;;;;;;;5012785;28;20080;-38
2022/04/17 01:53:30;;;;;;;0.98;0.82;;;;;;;;;;5013094;28;20030;-39
2022/04/17 01:55:59;;;;;;;1.15;0.95;;;;;;;;;;5012978;28;20114;-38
2022/04/17 01:58:25;;;;;;;1.23;1.13;;;;;;;;;;5012597;28;20074;-38
2022/04/17 02:00:50;;;;;;;1.40;1.30;;;;;;;;;;5012759;28;20145;-38
2022/04/17 02:03:16;;;;;;;5.70;1.10;;;;;;;;;;5012673;28;20040;-38
2022/04/17 02:05:41;;;;;;;2.05;1.20;;;;;;;;;;5012894;28;20069;-38
2022/04/17 02:08:07;;;;;;;1.00;1.00;;;;;;;;;;5012619;28;20121;-39
2022/04/17 02:10:32;;;;;;;0.93;0.93;;;;;;;;;;5012584;28;20030;-38
2022/04/17 02:13:00;;;;;;;1.10;1.00;;;;;;;;;;5012602;28;20033;-38
2022/04/17 02:15:26;;;;;;;1.75;1.30;;;;;;;;;;5012817;28;20076;-38
2022/04/17 02:17:51;;;;;;;5.60;1.55;;;;;;;;;;5012683;28;20054;-38
2022/04/17 02:20:17;;;;;;;0.85;0.85;;;;;;;;;;5012531;28;20018;-38
2022/04/17 02:22:43;;;;;;;1.50;1.17;;;;;;;;;;5012469;28;20036;-39
2022/04/17 02:25:09;;;;;;;1.70;1.08;;;;;;;;;;5012586;28;20160;-38
2022/04/17 02:27:34;;;;;;;1.17;1.08;;;;;;;;;;5012526;28;20113;-40
2022/04/17 02:30:00;;;;;;;1.70;1.38;;;;;;;;;;5012689;28;20381;-38
2022/04/17 02:32:26;;;;;;;1.23;1.13;;;;;;;;;;5014692;28;20030;-39
2022/04/17 02:34:51;;;;;;;1.20;1.10;;;;;;;;;;5016494;28;20024;-38
2022/04/17 02:37:16;;;;;;;0.90;0.90;;;;;;;;;;5016702;28;20021;-39
2022/04/17 02:39:42;;;;;;;1.05;1.05;;;;;;;;;;5016729;28;20032;-38
2022/04/17 02:42:07;;;;;;;0.90;0.90;;;;;;;;;;5016506;28;20489;-38
2022/04/17 02:44:33;;;;;;;1.08;1.05;;;;;;;;;;5016591;28;20440;-39
2022/04/17 02:49:42;;;;;;;1.13;1.02;;;;;;;;;;5016341;28;20533;-38
2022/04/17 02:52:08;;;;;;;0.98;0.90;;;;;;;;;;5016161;28;20053;-39
2022/04/17 02:54:33;;;;;;;1.75;0.80;;;;;;;;;;5016061;28;20036;-39
2022/04/17 02:56:59;;;;;;;1.40;1.30;;;;;;;;;;5016034;28;20065;-39
2022/04/17 02:59:24;;;;;;;1.08;0.98;;;;;;;;;;5015803;28;20100;-38
2022/04/17 03:07:17;;;;;;;1.13;1.13;;;;;;;;;;5015857;28;20172;-39
2022/04/17 03:09:43;;;;;;;1.15;1.05;;;;;;;;;;5015822;28;20113;-39
2022/04/17 03:12:08;;;;;;;2.22;1.30;;;;;;;;;;5015980;28;20108;-39
2022/04/17 03:14:33;;;;;;;1.13;0.80;;;;;;;;;;5015737;28;20393;-39
2022/04/17 03:16:59;;;;;;;0.98;0.98;;;;;;;;;;5015546;28;20029;-39
2022/04/17 03:19:24;;;;;;;1.10;1.10;;;;;;;;;;5015697;28;20038;-39
2022/04/17 03:21:50;;;;;;;1.20;1.10;;;;;;;;;;5015801;28;20034;-38
2022/04/17 03:24:15;;;;;;;1.20;1.10;;;;;;;;;;5015703;28;20466;-38
2022/04/17 03:26:41;;;;;;;1.42;1.27;;;;;;;;;;5015370;28;20026;-39
2022/04/17 03:29:07;;;;;;;1.70;1.20;;;;;;;;;;5015778;28;20022;-38
2022/04/17 03:31:32;;;;;;;1.50;1.15;;;;;;;;;;5015364;28;20033;-39
2022/04/17 03:33:58;;;;;;;1.25;1.15;;;;;;;;;;5015433;28;20121;-39
2022/04/17 03:36:23;;;;;;;1.73;1.17;;;;;;;;;;5015352;28;20069;-39
2022/04/17 03:38:49;;;;;;;2.00;1.20;;;;;;;;;;5015256;28;20029;-39
2022/04/17 03:41:14;;;;;;;1.63;1.52;;;;;;;;;;5015241;28;20030;-39
2022/04/17 03:43:39;;;;;;;1.23;1.13;;;;;;;;;;5015361;28;20040;-41
2022/04/17 03:46:05;;;;;;;1.80;1.20;;;;;;;;;;5015161;28;20612;-39
2022/04/17 03:48:30;;;;;;;1.70;1.27;;;;;;;;;;5015097;28;20510;-39
2022/04/17 03:50:56;;;;;;;1.45;1.30;;;;;;;;;;5015230;28;20025;-39
2022/04/17 03:53:21;;;;;;;1.70;1.17;;;;;;;;;;5015385;28;20115;-39
2022/04/17 03:55:47;;;;;;;1.38;1.10;;;;;;;;;;5014996;28;20084;-40
2022/04/17 03:58:12;;;;;;;1.30;1.20;;;;;;;;;;5015149;28;20030;-38
2022/04/17 04:00:38;;;;;;;1.70;1.60;;;;;;;;;;5014676;28;20078;-41
2022/04/17 04:03:03;;;;;;;3.10;1.25;;;;;;;;;;5014794;28;20022;-38
2022/04/17 04:05:29;;;;;;;1.30;1.20;;;;;;;;;;5014754;28;20022;-40
2022/04/17 04:07:55;;;;;;;1.30;1.17;;;;;;;;;;5015019;28;20041;-39
2022/04/17 04:10:20;;;;;;;1.48;1.10;;;;;;;;;;5014931;28;20025;-39
2022/04/17 04:12:45;;;;;;;1.45;1.23;;;;;;;;;;5014652;28;20431;-39
2022/04/17 04:15:11;;;;;;;1.02;1.00;;;;;;;;;;5014921;28;20072;-39
2022/04/17 04:17:36;;;;;;;2.03;0.90;;;;;;;;;;5014611;28;20478;-39
2022/04/17 04:20:04;;;;;;;3.00;1.33;;;;;;;;;;5014926;28;20033;-40
2022/04/17 04:22:29;;;;;;;1.60;1.30;;;;;;;;;;5014445;28;20026;-41
2022/04/17 04:24:55;;;;;;;0.80;0.80;;;;;;;;;;5014720;28;20026;-39
2022/04/17 04:30:05;;;;;;;1.25;1.15;;;;;;;;;;5014455;28;20040;-40
2022/04/17 04:32:30;;;;;;;1.35;1.25;;;;;;;;;;5014661;28;20552;-41
2022/04/17 04:35:02;;;;;;;1.88;1.52;;;;;;;;;;5014465;28;20382;-40
2022/04/17 04:37:28;;;;;;;4.60;1.70;;;;;;;;;;5014174;28;20025;-39
2022/04/17 04:39:53;;;;;;;1.40;1.30;;;;;;;;;;5014058;28;20042;-40
2022/04/17 04:42:22;;;;;;;2.13;1.40;;;;;;;;;;5014307;28;20030;-41
2022/04/17 04:46:06;;;;;;;1.20;1.10;;;;;;;;;;5013983;28;20026;-39
2022/04/17 04:47:33;;;;;;;1.55;1.45;;;;;;;;;;5013750;28;20030;-39
2022/04/17 04:50:00;;;;;;;1.80;1.52;;;;;;;;;;5013941;28;20536;-39
2022/04/17 04:52:25;;;;;;;1.35;1.23;;;;;;;;;;5014300;28;20037;-40
2022/04/17 04:54:51;;;;;;;1.67;1.23;;;;;;;;;;5013564;28;20026;-39
2022/04/17 04:57:16;;;;;;;1.20;1.10;;;;;;;;;;5014183;28;20034;-40
2022/04/17 04:59:42;;;;;;;1.40;1.30;;;;;;;;;;5013678;28;20046;-39
2022/04/17 05:02:07;;;;;;;3.55;1.50;;;;;;;;;;5014325;28;20038;-39
2022/04/17 05:04:33;;;;;;;1.50;1.40;;;;;;;;;;5013692;28;20025;-38
2022/04/17 05:06:59;;;;;;;1.40;1.30;;;;;;;;;;5013605;28;20036;-39
2022/04/17 05:09:24;;;;;;;1.40;1.30;;;;;;;;;;5013581;28;20030;-40
2022/04/17 05:11:50;;;;;;;2.08;1.40;;;;;;;;;;5013572;28;20072;-39
2022/04/17 05:14:18;;;;;;;3.10;1.33;;;;;;;;;;5013785;28;20029;-39
2022/04/17 05:16:44;;;;;;;1.60;1.50;;;;;;;;;;5013817;28;20056;-39
2022/04/17 05:19:20;;;;;;;1.48;1.25;;;;;;;;;;5013744;28;20030;-39
2022/04/17 05:21:47;;;;;;;1.30;1.20;;;;;;;;;;5013116;28;20080;-39
2022/04/17 05:24:16;;;;;;;1.50;1.30;;;;;;;;;;5013371;28;20022;-39
2022/04/17 05:26:42;;;;;;;2.10;1.48;;;;;;;;;;5013548;28;20029;-39
2022/04/17 05:29:07;;;;;;;1.70;1.42;;;;;;;;;;5013546;28;20068;-40
2022/04/17 05:31:33;;;;;;;2.95;1.33;;;;;;;;;;5013489;28;20030;-39
2022/04/17 05:33:58;;;;;;;1.65;1.10;;;;;;;;;;5013548;28;20441;-40
2022/04/17 05:36:24;;;;;;;1.65;1.20;;;;;;;;;;5013230;28;20034;-39
2022/04/17 05:38:49;;;;;;;1.40;1.30;;;;;;;;;;5013454;28;20037;-39
2022/04/17 05:41:15;;;;;;;1.30;1.20;;;;;;;;;;5013119;28;20443;-39
2022/04/17 05:43:41;;;;;;;2.03;1.48;;;;;;;;;;5013267;28;20068;-38
2022/04/17 05:46:07;;;;;;;1.98;1.45;;;;;;;;;;5013048;28;20034;-39
2022/04/17 05:48:32;;;;;;;2.58;1.70;;;;;;;;;;5013193;28;20432;-39
2022/04/17 05:50:58;;;;;;;1.65;1.35;;;;;;;;;;5012918;28;20037;-39
2022/04/17 05:53:24;;;;;;;1.30;1.20;;;;;;;;;;5012862;28;20356;-39
2022/04/17 05:55:49;;;;;;;2.17;1.90;;;;;;;;;;5013133;28;20038;-39
2022/04/17 05:58:15;;;;;;;2.10;1.80;;;;;;;;;;5012762;28;20475;-39
2022/04/17 06:00:42;;;;;;;1.60;1.15;;;;;;;;;;5012684;28;20096;-39
2022/04/17 06:03:08;;;;;;;3.45;1.70;;;;;;;;;;5013013;28;20034;-40
2022/04/17 06:05:34;;;;;;;1.80;1.42;;;;;;;;;;5012547;28;20385;-39
2022/04/17 06:07:59;;;;;;;2.45;2.13;;;;;;;;;;5012121;28;20390;-39
2022/04/17 06:10:25;;;;;;;2.00;1.40;;;;;;;;;;5011892;28;20083;-39
2022/04/17 06:12:50;;;;;;;2.40;1.70;;;;;;;;;;5012402;28;20025;-39
2022/04/17 06:15:16;;;;;;;10.15;2.13;;;;;;;;;;4994650;28;20030;-39
2022/04/17 06:17:42;;;;;;;2.28;1.77;;;;;;;;;;5012102;28;20363;-39
2022/04/17 06:20:13;;;;;;;1.42;1.27;;;;;;;;;;5010772;28;20382;-39
2022/04/17 06:22:39;;;;;;;2.08;1.63;;;;;;;;;;5010730;28;20494;-40
2022/04/17 06:25:10;;;;;;;5.38;2.03;;;;;;;;;;5010641;28;20534;-40
2022/04/17 06:27:40;;;;;;;2.75;2.17;;;;;;;;;;5010883;28;20033;-39
2022/04/17 06:30:15;;;;;;;3.08;2.63;;;;;;;;;;5010653;28;20056;-40
2022/04/17 06:32:41;;;;;;;1.02;0.98;;;;;;;;;;5011443;28;20033;-40
2022/04/17 06:35:10;;;;;;;3.55;2.47;;;;;;;;;;5012720;28;20030;-40
2022/04/17 06:37:58;;;;;;;2.63;2.42;;;;;;;;;;5012625;28;20363;-40
2022/04/17 06:40:26;;;;;;;2.67;2.47;;;;;;;;;;5012649;28;20363;-40
2022/04/17 06:42:53;;;;;;;3.20;1.70;;;;;;;;;;5012390;28;20026;-38
2022/04/17 06:45:19;;;;;;;6.30;2.40;;;;;;;;;;5012336;28;20018;-39
2022/04/17 06:47:45;;;;;;;2.33;1.80;;;;;;;;;;5012273;28;20505;-40
2022/04/17 06:50:12;;;;;;;2.20;1.40;;;;;;;;;;5012337;28;20117;-41
2022/04/17 06:52:38;;;;;;;6.45;2.28;;;;;;;;;;5012284;28;20026;-38
2022/04/17 06:55:05;;;;;;;9.27;2.40;;;;;;;;;;5012274;28;20080;-40
2022/04/17 06:57:33;;;;;;;1.33;1.23;;;;;;;;;;5012217;28;20026;-39
2022/04/17 07:00:03;;;;;;;1.48;1.38;;;;;;;;;;5011875;28;20046;-40
2022/04/17 07:02:29;;;;;;;;;;;;;;;;;;5012657;28;20065;-39
2022/04/17 07:04:54;;;;;;;1.17;1.10;;;;;;;;;;5012130;28;19949;-39
2022/04/17 07:07:21;;;;;;;4.10;2.05;;;;;;;;;;5012041;28;20077;-40
2022/04/17 07:09:47;;;;;;;1.13;1.02;;;;;;;;;;5012145;28;20475;-39
2022/04/17 07:12:13;;;;;;;10.00;1.70;;;;;;;;;;5011947;28;20041;-38
2022/04/17 07:14:40;;;;;;;15.00;3.17;;;;;;;;;;5012155;28;20109;-38
2022/04/17 07:17:06;;;;;;;1.80;1.50;;;;;;;;;;4995114;28;20080;-38
2022/04/17 07:19:31;;;;;;;7.22;1.48;;;;;;;;;;5015718;28;20029;-39
2022/04/17 07:21:57;;;;;;;3.05;1.30;;;;;;;;;;5015690;28;20482;-39
2022/04/17 07:24:24;;;;;;;9.75;2.38;;;;;;;;;;5015850;28;20026;-39
2022/04/17 07:26:53;;;;;;;10.35;1.45;;;;;;;;;;5015502;28;20108;-38
2022/04/17 07:29:22;;;;;;;1.23;1.20;;;;;;;;;;5015807;28;20033;-39
2022/04/17 07:31:53;;;;;;;10.10;2.30;;;;;;;;;;5015766;28;20030;-40
2022/04/17 07:34:19;;;;;;;;;;;;;;;;;;5015773;28;20022;-39
2022/04/17 07:36:47;;;;;;;7.00;1.20;;;;;;;;;;5015431;28;19913;-39
2022/04/17 07:39:18;;;;;;;1.25;1.15;;;;;;;;;;5015306;28;20026;-40
2022/04/17 07:41:46;;;;;;;4.18;1.60;;;;;;;;;;5015267;28;20127;-39
2022/04/17 07:44:13;;;;;;;10.27;2.08;;;;;;;;;;5015472;28;20033;-39
2022/04/17 07:46:39;;;;;;;34.55;2.47;;;;;;;;;;4998122;28;20113;-40
2022/04/17 07:49:04;;;;;;;1.63;1.30;;;;;;;;;;5015041;28;20058;-39
2022/04/17 07:51:30;;;;;;;9.80;1.75;;;;;;;;;;5015369;28;20026;-39
2022/04/17 07:53:56;;;;;;;34.13;2.80;;;;;;;;;;5015059;28;20545;-40
2022/04/17 07:56:21;;;;;;;2.45;1.20;;;;;;;;;;5014938;28;20041;-39
2022/04/17 07:58:47;;;;;;;6.80;1.73;;;;;;;;;;5014978;28;20383;-39
2022/04/17 08:01:14;;;;;;;14.35;2.42;;;;;;;;;;5015112;28;20065;-39
2022/04/17 08:06:06;;;;;;;53.60;4.10;;;;;;;;;;5015088;28;20029;-39
2022/04/17 08:08:39;;;;;;;19.38;2.53;;;;;;;;;;5014479;28;20030;-39
2022/04/17 08:11:05;;;;;;;63.55;5.25;;;;;;;;;;5014892;28;20045;-39
2022/04/17 08:13:31;;;;;;;5.63;1.52;;;;;;;;;;5014821;28;20517;-40
2022/04/17 08:15:57;;;;;;;4.28;1.63;;;;;;;;;;5014477;28;20034;-39
2022/04/17 08:18:22;;;;;;;7.57;2.20;;;;;;;;;;5014561;28;20114;-39
2022/04/17 08:20:48;;;;;;;4.45;1.67;;;;;;;;;;5014449;28;20183;-39
2022/04/17 08:23:13;;;;;;;1.45;1.35;;;;;;;;;;5014676;28;20021;-38
2022/04/17 08:25:39;;;;;;;12.20;2.25;;;;;;;;;;5014662;28;20033;-39
2022/04/17 08:28:04;;;;;;;8.02;1.40;;;;;;;;;;5014138;28;20470;-39
2022/04/17 08:30:31;;;;;;;9.65;2.60;;;;;;;;;;5013560;28;20032;-39
2022/04/17 08:32:59;;;;;;;10.15;2.60;;;;;;;;;;5014556;28;20030;-39
2022/04/17 08:35:25;;;;;;;6.28;1.90;;;;;;;;;;5014160;28;20129;-39
2022/04/17 08:37:51;;;;;;;16.35;2.67;;;;;;;;;;5013972;28;20445;-39
2022/04/17 08:40:17;;;;;;;11.05;2.42;;;;;;;;;;5013979;28;20109;-38
2022/04/17 08:42:44;;;;;;;5.32;1.33;;;;;;;;;;5014187;28;20030;-38
2022/04/17 08:45:12;;;;;;;7.45;1.80;;;;;;;;;;5014261;28;20070;-39
2022/04/17 08:47:42;;;;;;;4.55;1.27;;;;;;;;;;5014152;28;20470;-39
2022/04/17 08:50:09;;;;;;;18.92;1.73;;;;;;;;;;5013941;28;20026;-40
2022/04/17 08:52:35;;;;;;;1.42;1.13;;;;;;;;;;5014003;28;20034;-39
2022/04/17 08:55:02;;;;;;;16.48;2.25;;;;;;;;;;5013784;28;20026;-39
2022/04/17 08:57:29;;;;;;;16.50;2.30;;;;;;;;;;5014098;28;20034;-39
2022/04/17 08:59:54;;;;;;;7.95;1.50;;;;;;;;;;5013417;28;20486;-39
2022/04/17 09:02:20;;;;;;;16.92;2.88;;;;;;;;;;5013599;28;20080;-39
2022/04/17 09:04:46;;;;;;;1.33;1.23;;;;;;;;;;5013603;28;20112;-39
2022/04/17 09:07:13;;;;;;;19.98;2.72;;;;;;;;;;5013653;28;20034;-39
2022/04/17 09:09:50;;;;;;;10.85;2.80;;;;;;;;;;5013606;28;20034;-39
2022/04/17 09:12:24;;;;;;;5.88;1.75;;;;;;;;;;5013868;28;20032;-39
2022/04/17 09:14:50;;;;;;;6.22;1.40;;;;;;;;;;5013546;28;20030;-39
2022/04/17 09:17:16;;;;;;;5.47;1.90;;;;;;;;;;5013768;28;20074;-42
2022/04/17 09:19:42;;;;;;;9.43;1.52;;;;;;;;;;5013394;28;20026;-42
2022/04/17 09:22:09;;;;;;;12.07;1.77;;;;;;;;;;5013789;28;20026;-40
2022/04/17 09:24:40;;;;;;;6.88;2.13;;;;;;;;;;5013646;28;20370;-39
2022/04/17 09:27:07;;;;;;;13.38;2.45;;;;;;;;;;5013282;28;20022;-39
2022/04/17 09:29:37;;;;;;;9.82;2.45;;;;;;;;;;5013250;28;20387;-39
2022/04/17 09:32:11;;;;;;;11.45;1.88;;;;;;;;;;5013573;28;20109;-39
2022/04/17 09:34:52;;;;;;;6.80;1.80;;;;;;;;;;5013524;28;20391;-40
2022/04/17 09:37:22;;;;;;;16.92;2.10;;;;;;;;;;5013533;28;20498;-40
2022/04/17 09:39:49;;;;;;;10.27;2.10;;;;;;;;;;5013107;28;20079;-39
2022/04/17 09:42:26;;;;;;;11.48;1.58;;;;;;;;;;5012953;28;20038;-39
2022/04/17 09:44:55;;;;;;;16.55;3.20;;;;;;;;;;5013279;28;20026;-39
2022/04/17 09:47:22;;;;;;;12.98;2.40;;;;;;;;;;5012684;28;20495;-40
2022/04/17 09:50:06;;;;;;;26.38;3.58;;;;;;;;;;5013188;28;20041;-40
2022/04/17 09:52:44;;;;;;;14.98;2.40;;;;;;;;;;5011180;28;20486;-39
2022/04/17 09:55:10;;;;;;;18.77;3.55;;;;;;;;;;5011059;28;20072;-40
2022/04/17 09:57:39;;;;;;;14.07;2.92;;;;;;;;;;5011162;28;20072;-39
2022/04/17 10:00:25;;;;;;;2.58;1.17;;;;;;;;;;5012475;28;20046;-40
2022/04/17 10:02:51;;;;;;;4.50;1.67;;;;;;;;;;5012465;28;20041;-39
2022/04/17 10:05:18;;;;;;;4.78;1.92;;;;;;;;;;5012747;28;20021;-39
2022/04/17 10:07:48;;;;;;;11.75;2.10;;;;;;;;;;5012510;28;20099;-39
2022/04/17 10:10:15;;;;;;;2.85;1.73;;;;;;;;;;5012637;28;20021;-40
2022/04/17 10:12:45;;;;;;;3.83;1.77;;;;;;;;;;5012626;28;20021;-39
2022/04/17 10:15:12;;;;;;;7.35;1.90;;;;;;;;;;5012499;28;20029;-39
2022/04/17 10:17:38;;;;;;;10.13;2.17;;;;;;;;;;5012719;28;20037;-40
2022/04/17 10:20:08;;;;;;;22.70;3.70;;;;;;;;;;5012413;28;20478;-39
2022/04/17 10:22:35;;;;;;;18.00;2.43;;;;;;;;;;5012420;28;20081;-39
2022/04/17 10:25:03;;;;;;;33.28;3.50;;;;;;;;;;5012327;28;20455;-39
2022/04/17 10:27:36;;;;;;;13.00;3.15;;;;;;;;;;5012364;28;20036;-40
2022/04/17 10:30:12;;;;;;;7.40;1.67;;;;;;;;;;5012294;28;20033;-39
2022/04/17 10:33:02;;;;;;;6.38;1.90;;;;;;;;;;5012244;28;20034;-39
2022/04/17 10:36:08;;;;;;;6.53;1.33;;;;;;;;;;5012443;28;20080;-39
2022/04/17 10:38:59;;;;;;;12.60;2.40;;;;;;;;;;5012601;28;20037;-40
2022/04/17 10:41:25;;;;;;;2.00;1.25;;;;;;;;;;5012480;28;20026;-40
2022/04/17 10:43:50;;;;;;;5.10;1.83;;;;;;;;;;5012034;28;20033;-39
2022/04/17 10:46:20;;;;;;;3.53;1.45;;;;;;;;;;5012497;28;20026;-39
2022/04/17 10:48:54;;;;;;;21.35;3.03;;;;;;;;;;5012438;28;20167;-39
2022/04/17 10:51:27;;;;;;;13.23;3.20;;;;;;;;;;5012547;28;20041;-39
2022/04/17 10:54:10;;;;;;;3.13;1.30;;;;;;;;;;5015109;28;20089;-39
2022/04/17 10:56:56;;;;;;;3.00;1.38;;;;;;;;;;4977748;28;20025;-39
2022/04/17 10:59:26;;;;;;;22.27;2.88;;;;;;;;;;5015782;28;20543;-40
2022/04/17 11:02:04;;;;;;;1.85;1.42;;;;;;;;;;5016216;28;20479;-40
2022/04/17 11:04:38;;;;;;;3.63;1.42;;;;;;;;;;5015769;28;20030;-40
2022/04/17 11:07:04;;;;;;;13.70;2.28;;;;;;;;;;5015727;28;20034;-39
2022/04/17 11:09:45;;;;;;;8.35;1.73;;;;;;;;;;5016022;28;20030;-39
2022/04/17 11:12:17;;;;;;;26.75;3.50;;;;;;;;;;5016017;28;20037;-38
2022/04/17 11:15:01;;;;;;;16.10;2.70;;;;;;;;;;5015735;28;20022;-37
2022/04/17 11:17:28;;;;;;;16.55;2.53;;;;;;;;;;5015872;28;20037;-39
2022/04/17 11:20:00;;;;;;;4.50;2.25;;;;;;;;;;4998212;28;20018;-38
2022/04/17 11:22:27;;;;;;;12.82;3.05;;;;;;;;;;5015651;28;20053;-39
2022/04/17 11:24:57;;;;;;;28.08;3.45;;;;;;;;;;5014445;28;20378;-38
2022/04/17 11:27:33;;;;;;;19.23;2.60;;;;;;;;;;5013903;28;20034;-37
2022/04/17 11:30:01;;;;;;;11.45;2.95;;;;;;;;;;5014168;28;20064;-37
2022/04/17 11:32:29;;;;;;;8.23;2.40;;;;;;;;;;5014059;28;20029;-37
2022/04/17 11:34:57;;;;;;;16.33;2.92;;;;;;;;;;5013761;28;20018;-38
2022/04/17 11:37:26;;;;;;;17.98;3.05;;;;;;;;;;5013668;28;20607;-37
2022/04/17 11:39:54;;;;;;;12.57;3.10;;;;;;;;;;5013491;28;20022;-38
2022/04/17 11:42:19;;;;;;;9.57;2.03;;;;;;;;;;5013425;28;20030;-39
2022/04/17 11:44:48;;;;;;;28.70;3.78;;;;;;;;;;5013893;28;20030;-38
2022/04/17 11:47:18;;;;;;;6.63;1.73;;;;;;;;;;5013432;28;20413;-38
2022/04/17 11:49:44;;;;;;;;;;;;;;;;;;5013944;28;20441;-39
2022/04/17 11:52:10;;;;;;;4.20;1.45;;;;;;;;;;5013421;28;20024;-39
2022/04/17 11:54:36;;;;;;;3.50;1.85;;;;;;;;;;5013600;28;20030;-39
2022/04/17 11:57:02;;;;;;;23.08;3.45;;;;;;;;;;5013529;28;20363;-39
2022/04/17 11:59:27;;;;;;;7.13;2.83;;;;;;;;;;5013125;28;20042;-40
2022/04/17 12:02:16;;;;;;;8.60;1.83;;;;;;;;;;5013612;28;20030;-38
2022/04/17 12:04:45;;;;;;;12.68;2.92;;;;;;;;;;5013436;28;20018;-38
2022/04/17 12:07:17;;;;;;;9.30;2.42;;;;;;;;;;5013485;28;20026;-39
2022/04/17 12:09:43;;;;;;;1.85;1.48;;;;;;;;;;5013345;28;20034;-39
2022/04/17 12:12:18;;;;;;;5.57;2.20;;;;;;;;;;4995608;28;20030;-39
2022/04/17 12:14:45;;;;;;;15.43;2.47;;;;;;;;;;5013049;28;20025;-39
2022/04/17 12:17:11;;;;;;;12.10;2.72;;;;;;;;;;5013300;28;20380;-39
2022/04/17 12:19:37;;;;;;;8.15;1.50;;;;;;;;;;5013145;28;20033;-43
2022/04/17 12:22:20;;;;;;;7.30;1.52;;;;;;;;;;5012951;28;20433;-43
2022/04/17 12:24:47;;;;;;;43.50;3.72;;;;;;;;;;5013252;28;20033;-42
2022/04/17 12:27:19;;;;;;;10.38;1.88;;;;;;;;;;5012680;28;20497;-42
2022/04/17 12:29:56;;;;;;;3.35;1.58;;;;;;;;;;5013095;28;20034;-44
2022/04/17 12:32:24;;;;;;;1.48;1.30;;;;;;;;;;5012816;28;20022;-45
2022/04/17 12:35:00;;;;;;;1.73;1.17;;;;;;;;;;5012680;28;20034;-41
2022/04/17 12:37:30;;;;;;;7.32;2.47;;;;;;;;;;5012737;28;20066;-41
2022/04/17 12:40:18;;;;;;;8.95;2.15;;;;;;;;;;5012625;28;20076;-42
2022/04/17 12:42:44;;;;;;;3.80;1.17;;;;;;;;;;5012294;28;20529;-42
2022/04/17 12:45:21;;;;;;;3.67;1.35;;;;;;;;;;5012436;28;20042;-42
2022/04/17 12:48:08;;;;;;;2.13;1.30;;;;;;;;;;5012405;28;20522;-44
2022/04/17 12:50:35;;;;;;;7.45;1.40;;;;;;;;;;4994727;28;20136;-41
2022/04/17 12:53:04;;;;;;;2.22;1.33;;;;;;;;;;5012277;28;20477;-41
2022/04/17 12:55:34;;;;;;;13.13;2.30;;;;;;;;;;5012692;28;20041;-42
2022/04/17 12:58:04;;;;;;;7.53;1.77;;;;;;;;;;4977716;28;20034;-41
2022/04/17 13:00:30;;;;;;;5.78;1.58;;;;;;;;;;5011787;28;20049;-41
2022/04/17 13:03:16;;;;;;;5.70;1.23;;;;;;;;;;5011443;28;20080;-44
2022/04/17 13:05:42;;;;;;;4.03;2.00;;;;;;;;;;5009425;28;20033;-42
2022/04/17 13:08:09;;;;;;;4.22;1.50;;;;;;;;;;4990338;28;20026;-42
2022/04/17 13:10:37;;;;;;;3.83;1.80;;;;;;;;;;5010946;28;20481;-41
2022/04/17 13:13:03;;;;;;;11.10;2.47;;;;;;;;;;5010527;28;20038;-42
2022/04/17 13:15:37;;;;;;;2.72;1.20;;;;;;;;;;5010509;28;20041;-43
2022/04/17 13:18:03;;;;;;;13.82;1.85;;;;;;;;;;5008975;28;20073;-42
2022/04/17 13:20:36;;;;;;;21.60;2.70;;;;;;;;;;5010606;28;20034;-44
2022/04/17 13:23:05;;;;;;;13.75;2.05;;;;;;;;;;5010806;28;20022;-42
2022/04/17 13:25:31;;;;;;;8.93;2.30;;;;;;;;;;5010747;28;20442;-43
2022/04/17 13:27:56;;;;;;;7.28;2.00;;;;;;;;;;5010400;28;20095;-43
2022/04/17 13:30:22;;;;;;;6.00;1.05;;;;;;;;;;5010303;28;20021;-42
2022/04/17 13:32:49;;;;;;;25.00;3.00;;;;;;;;;;5010567;28;20255;-42
2022/04/17 13:35:16;;;;;;;7.65;1.77;;;;;;;;;;5008061;28;20105;-43
2022/04/17 13:40:26;;;;;;;5.15;2.10;;;;;;;;;;5009537;28;20045;-43
2022/04/17 13:42:52;;;;;;;11.55;2.45;;;;;;;;;;5011147;28;20022;-43
2022/04/17 13:45:17;;;;;;;0.90;0.90;;;;;;;;;;5010983;28;20044;-44
2022/04/17 13:47:43;;;;;;;4.90;1.70;;;;;;;;;;5010985;28;20026;-43
2022/04/17 13:50:10;;;;;;;20.50;2.40;;;;;;;;;;5010485;28;20049;-43
2022/04/17 13:52:37;;;;;;;6.07;1.85;;;;;;;;;;5009942;28;20040;-43
2022/04/17 13:55:04;;;;;;;1.60;1.10;;;;;;;;;;5009983;28;20108;-43
2022/04/17 13:57:30;;;;;;;5.35;1.75;;;;;;;;;;5010278;28;20034;-43
2022/04/17 13:59:55;;;;;;;14.95;2.60;;;;;;;;;;4992082;28;20411;-42
2022/04/17 14:02:21;;;;;;;13.38;2.45;;;;;;;;;;5007501;28;20022;-47
2022/04/17 14:04:47;;;;;;;1.55;1.20;;;;;;;;;;5009874;28;20041;-42
2022/04/17 14:07:12;;;;;;;6.25;2.00;;;;;;;;;;5009743;28;20119;-43
2022/04/17 14:09:39;;;;;;;1.02;0.90;;;;;;;;;;5009741;28;20030;-44
2022/04/17 14:12:10;;;;;;;5.25;1.92;;;;;;;;;;5009952;28;20026;-41
2022/04/17 14:14:55;;;;;;;10.13;2.10;;;;;;;;;;5007898;28;20030;-45
2022/04/17 14:17:22;;;;;;;7.90;2.10;;;;;;;;;;4992858;28;20033;-42
2022/04/17 14:19:47;;;;;;;4.78;2.20;;;;;;;;;;5009677;28;20025;-42
2022/04/17 14:22:12;;;;;;;12.20;2.20;;;;;;;;;;5010007;28;20021;-42
2022/04/17 14:24:38;;;;;;;16.15;2.05;;;;;;;;;;5009409;28;20648;-41
2022/04/17 14:27:04;;;;;;;11.35;2.22;;;;;;;;;;5009326;28;20026;-43
2022/04/17 14:29:29;;;;;;;7.00;1.80;;;;;;;;;;5010977;28;20406;-46
2022/04/17 14:31:55;;;;;;;3.25;1.63;;;;;;;;;;5011063;28;20036;-45
2022/04/17 14:34:21;;;;;;;6.03;1.67;;;;;;;;;;5010848;28;20471;-44
2022/04/17 14:36:46;;;;;;;1.15;1.05;;;;;;;;;;5010713;28;20038;-45
2022/04/17 14:39:12;;;;;;;1.20;1.10;;;;;;;;;;5010775;28;20030;-44
2022/04/17 14:41:37;;;;;;;17.33;2.17;;;;;;;;;;5010687;28;20053;-42
2022/04/17 14:44:04;;;;;;;9.90;2.40;;;;;;;;;;5010606;28;20026;-44
2022/04/17 14:46:29;;;;;;;5.30;1.73;;;;;;;;;;5010941;28;20030;-43
2022/04/17 14:48:54;;;;;;;7.30;1.23;;;;;;;;;;5010478;28;20053;-46
2022/04/17 14:51:20;;;;;;;2.05;1.38;;;;;;;;;;5010571;28;20053;-47
2022/04/17 14:53:47;;;;;;;2.95;2.00;;;;;;;;;;5010737;28;20053;-46
2022/04/17 14:56:13;;;;;;;5.03;1.30;;;;;;;;;;5010760;28;20056;-46
2022/04/17 14:58:39;;;;;;;5.47;1.83;;;;;;;;;;4992315;28;20065;-45
2022/04/17 15:01:05;;;;;;;2.25;1.05;;;;;;;;;;4993181;28;20022;-46
2022/04/17 15:03:31;;;;;;;9.15;2.15;;;;;;;;;;5010763;28;20022;-44
2022/04/17 15:05:57;;;;;;;2.60;1.23;;;;;;;;;;5010529;28;20030;-44